sensor_id;sensor_type;location;lat;lon;timestamp;temperature;humidity
46336;DHT22;31365;48.858;8.530;2023-03-23T00:01:15;13.50;99.90
46336;DHT22;31365;48.858;8.530;2023-03-23T00:03:46;13.50;99.90
46336;DHT22;31365;48.858;8.530;2023-03-23T00:06:14;13.70;99.90
46336;DHT22;31365;48.858;8.530;2023-03-23T00:08:44;13.70;99.90
46336;DHT22;31365;48.858;8.530;2023-03-23T00:11:13;13.80;99.90
46336;DHT22;31365;48.858;8.530;2023-03-23T00:13:42;13.80;99.90
46336;DHT22;31365;48.858;8.530;2023-03-23T00:16:12;13.90;99.90
46336;DHT22;31365;48.858;8.530;2023-03-23T00:18:47;13.90;99.90
46336;DHT22;31365;48.858;8.530;2023-03-23T00:21:18;13.90;99.90
46336;DHT22;31365;48.858;8.530;2023-03-23T00:23:46;13.90;99.90
46336;DHT22;31365;48.858;8.530;2023-03-23T00:26:13;13.90;99.90
46336;DHT22;31365;48.858;8.530;2023-03-23T00:28:40;14.00;99.90
46336;DHT22;31365;48.858;8.530;2023-03-23T00:31:09;14.00;99.90
46336;DHT22;31365;48.858;8.530;2023-03-23T00:33:37;14.10;99.90
46336;DHT22;31365;48.858;8.530;2023-03-23T00:36:07;14.00;99.90
46336;DHT22;31365;48.858;8.530;2023-03-23T00:38:36;14.10;99.90
46336;DHT22;31365;48.858;8.530;2023-03-23T00:41:04;14.20;99.90
46336;DHT22;31365;48.858;8.530;2023-03-23T00:43:33;14.20;99.90
46336;DHT22;31365;48.858;8.530;2023-03-23T00:46:02;14.20;99.90
46336;DHT22;31365;48.858;8.530;2023-03-23T00:48:35;14.20;99.90
46336;DHT22;31365;48.858;8.530;2023-03-23T00:51:07;14.20;99.90
46336;DHT22;31365;48.858;8.530;2023-03-23T00:53:36;14.30;99.90
46336;DHT22;31365;48.858;8.530;2023-03-23T00:56:05;14.40;99.90
46336;DHT22;31365;48.858;8.530;2023-03-23T00:58:33;14.40;99.90
46336;DHT22;31365;48.858;8.530;2023-03-23T01:01:00;14.50;99.90
46336;DHT22;31365;48.858;8.530;2023-03-23T01:03:28;14.40;99.90
46336;DHT22;31365;48.858;8.530;2023-03-23T01:06:04;14.40;99.90
46336;DHT22;31365;48.858;8.530;2023-03-23T01:08:34;14.50;99.90
46336;DHT22;31365;48.858;8.530;2023-03-23T01:11:06;14.40;99.90
46336;DHT22;31365;48.858;8.530;2023-03-23T01:13:33;14.50;99.90
46336;DHT22;31365;48.858;8.530;2023-03-23T01:16:00;14.50;99.90
46336;DHT22;31365;48.858;8.530;2023-03-23T01:18:28;14.50;99.90
46336;DHT22;31365;48.858;8.530;2023-03-23T01:20:56;14.50;99.90
46336;DHT22;31365;48.858;8.530;2023-03-23T01:23:24;14.50;99.90
46336;DHT22;31365;48.858;8.530;2023-03-23T01:25:54;14.50;99.90
46336;DHT22;31365;48.858;8.530;2023-03-23T01:28:23;14.50;99.90
46336;DHT22;31365;48.858;8.530;2023-03-23T01:30:51;14.40;99.90
46336;DHT22;31365;48.858;8.530;2023-03-23T01:33:18;14.40;99.90
46336;DHT22;31365;48.858;8.530;2023-03-23T01:35:45;14.30;99.90
46336;DHT22;31365;48.858;8.530;2023-03-23T01:38:12;14.30;99.90
46336;DHT22;31365;48.858;8.530;2023-03-23T01:40:41;14.30;99.90
46336;DHT22;31365;48.858;8.530;2023-03-23T01:43:13;14.30;99.90
46336;DHT22;31365;48.858;8.530;2023-03-23T01:45:43;14.20;99.90
46336;DHT22;31365;48.858;8.530;2023-03-23T01:48:15;14.20;99.90
46336;DHT22;31365;48.858;8.530;2023-03-23T01:50:50;14.20;99.90
46336;DHT22;31365;48.858;8.530;2023-03-23T01:53:24;14.10;99.90
46336;DHT22;31365;48.858;8.530;2023-03-23T01:55:57;14.00;99.90
46336;DHT22;31365;48.858;8.530;2023-03-23T01:58:30;14.10;99.90
46336;DHT22;31365;48.858;8.530;2023-03-23T02:00:59;14.10;99.90
46336;DHT22;31365;48.858;8.530;2023-03-23T02:03:30;14.20;99.90
46336;DHT22;31365;48.858;8.530;2023-03-23T02:05:59;14.20;99.90
46336;DHT22;31365;48.858;8.530;2023-03-23T02:08:37;14.20;99.90
46336;DHT22;31365;48.858;8.530;2023-03-23T02:11:12;14.20;99.90
46336;DHT22;31365;48.858;8.530;2023-03-23T02:13:41;14.30;99.90
46336;DHT22;31365;48.858;8.530;2023-03-23T02:16:15;14.20;99.90
46336;DHT22;31365;48.858;8.530;2023-03-23T02:18:58;14.20;99.90
46336;DHT22;31365;48.858;8.530;2023-03-23T02:25:06;14.20;99.90
46336;DHT22;31365;48.858;8.530;2023-03-23T02:28:11;14.20;99.90
46336;DHT22;31365;48.858;8.530;2023-03-23T02:30:54;14.30;99.90
46336;DHT22;31365;48.858;8.530;2023-03-23T02:33:41;14.30;99.90
46336;DHT22;31365;48.858;8.530;2023-03-23T02:36:20;14.30;99.90
46336;DHT22;31365;48.858;8.530;2023-03-23T02:38:59;14.30;99.90
46336;DHT22;31365;48.858;8.530;2023-03-23T02:41:36;14.40;99.90
46336;DHT22;31365;48.858;8.530;2023-03-23T02:44:08;14.50;99.90
46336;DHT22;31365;48.858;8.530;2023-03-23T02:46:37;14.40;99.90
46336;DHT22;31365;48.858;8.530;2023-03-23T02:49:11;14.50;99.90
46336;DHT22;31365;48.858;8.530;2023-03-23T02:51:43;14.60;99.90
46336;DHT22;31365;48.858;8.530;2023-03-23T02:54:15;14.80;99.90
46336;DHT22;31365;48.858;8.530;2023-03-23T02:56:47;14.90;99.90
46336;DHT22;31365;48.858;8.530;2023-03-23T02:59:22;15.00;99.90
46336;DHT22;31365;48.858;8.530;2023-03-23T03:02:02;15.10;99.90
46336;DHT22;31365;48.858;8.530;2023-03-23T03:04:36;15.20;99.90
46336;DHT22;31365;48.858;8.530;2023-03-23T03:10:19;15.20;99.90
46336;DHT22;31365;48.858;8.530;2023-03-23T03:12:56;15.30;99.90
46336;DHT22;31365;48.858;8.530;2023-03-23T03:15:34;15.40;99.90
46336;DHT22;31365;48.858;8.530;2023-03-23T03:18:09;15.40;99.90
46336;DHT22;31365;48.858;8.530;2023-03-23T03:20:45;15.40;99.90
46336;DHT22;31365;48.858;8.530;2023-03-23T03:23:17;15.40;99.90
46336;DHT22;31365;48.858;8.530;2023-03-23T03:25:47;15.50;99.90
46336;DHT22;31365;48.858;8.530;2023-03-23T03:28:25;15.60;99.90
46336;DHT22;31365;48.858;8.530;2023-03-23T03:30:56;15.60;99.90
46336;DHT22;31365;48.858;8.530;2023-03-23T03:33:28;15.70;99.90
46336;DHT22;31365;48.858;8.530;2023-03-23T03:35:59;15.70;99.90
46336;DHT22;31365;48.858;8.530;2023-03-23T03:38:28;15.70;99.90
46336;DHT22;31365;48.858;8.530;2023-03-23T03:40:56;15.70;99.90
46336;DHT22;31365;48.858;8.530;2023-03-23T03:43:24;15.80;99.90
46336;DHT22;31365;48.858;8.530;2023-03-23T03:45:51;15.80;99.90
46336;DHT22;31365;48.858;8.530;2023-03-23T03:48:19;15.70;99.90
46336;DHT22;31365;48.858;8.530;2023-03-23T03:50:46;15.60;99.90
46336;DHT22;31365;48.858;8.530;2023-03-23T03:53:15;15.60;99.90
46336;DHT22;31365;48.858;8.530;2023-03-23T03:55:43;15.60;99.90
46336;DHT22;31365;48.858;8.530;2023-03-23T03:58:12;15.60;99.90
46336;DHT22;31365;48.858;8.530;2023-03-23T04:01:06;15.60;99.90
46336;DHT22;31365;48.858;8.530;2023-03-23T04:03:38;15.60;99.90
46336;DHT22;31365;48.858;8.530;2023-03-23T04:06:29;15.60;99.90
46336;DHT22;31365;48.858;8.530;2023-03-23T04:09:02;15.60;99.90
46336;DHT22;31365;48.858;8.530;2023-03-23T04:11:33;15.60;99.90
46336;DHT22;31365;48.858;8.530;2023-03-23T04:14:23;15.60;99.90
46336;DHT22;31365;48.858;8.530;2023-03-23T04:16:53;15.60;99.90
46336;DHT22;31365;48.858;8.530;2023-03-23T04:19:23;15.60;99.90
46336;DHT22;31365;48.858;8.530;2023-03-23T04:21:50;15.50;99.90
46336;DHT22;31365;48.858;8.530;2023-03-23T04:24:19;15.50;99.90
46336;DHT22;31365;48.858;8.530;2023-03-23T04:26:49;15.50;99.90
46336;DHT22;31365;48.858;8.530;2023-03-23T04:29:25;15.50;99.90
46336;DHT22;31365;48.858;8.530;2023-03-23T04:32:13;15.60;99.90
46336;DHT22;31365;48.858;8.530;2023-03-23T04:34:46;15.50;99.90
46336;DHT22;31365;48.858;8.530;2023-03-23T04:37:15;15.50;99.90
46336;DHT22;31365;48.858;8.530;2023-03-23T04:39:44;15.50;99.90
46336;DHT22;31365;48.858;8.530;2023-03-23T04:42:13;15.40;99.90
46336;DHT22;31365;48.858;8.530;2023-03-23T04:44:56;15.40;99.90
46336;DHT22;31365;48.858;8.530;2023-03-23T04:47:32;15.40;99.90
46336;DHT22;31365;48.858;8.530;2023-03-23T04:50:12;15.40;99.90
46336;DHT22;31365;48.858;8.530;2023-03-23T04:52:41;15.40;99.90
46336;DHT22;31365;48.858;8.530;2023-03-23T04:55:14;15.40;99.90
46336;DHT22;31365;48.858;8.530;2023-03-23T04:57:47;15.40;99.90
46336;DHT22;31365;48.858;8.530;2023-03-23T05:00:34;15.40;99.90
46336;DHT22;31365;48.858;8.530;2023-03-23T05:03:03;15.40;99.90
46336;DHT22;31365;48.858;8.530;2023-03-23T05:05:34;15.40;99.90
46336;DHT22;31365;48.858;8.530;2023-03-23T05:08:05;15.30;99.90
46336;DHT22;31365;48.858;8.530;2023-03-23T05:10:38;15.30;99.90
46336;DHT22;31365;48.858;8.530;2023-03-23T05:13:09;15.20;99.90
46336;DHT22;31365;48.858;8.530;2023-03-23T05:15:36;15.30;99.90
46336;DHT22;31365;48.858;8.530;2023-03-23T05:18:05;15.30;99.90
46336;DHT22;31365;48.858;8.530;2023-03-23T05:20:33;15.20;99.90
46336;DHT22;31365;48.858;8.530;2023-03-23T05:23:08;15.20;99.90
46336;DHT22;31365;48.858;8.530;2023-03-23T05:25:39;15.10;99.90
46336;DHT22;31365;48.858;8.530;2023-03-23T05:28:13;15.10;99.90
46336;DHT22;31365;48.858;8.530;2023-03-23T05:30:42;15.00;99.90
46336;DHT22;31365;48.858;8.530;2023-03-23T05:33:11;15.00;99.90
46336;DHT22;31365;48.858;8.530;2023-03-23T05:36:08;15.00;99.90
46336;DHT22;31365;48.858;8.530;2023-03-23T05:39:02;14.90;99.90
46336;DHT22;31365;48.858;8.530;2023-03-23T05:41:53;14.80;99.90
46336;DHT22;31365;48.858;8.530;2023-03-23T05:44:23;14.80;99.90
46336;DHT22;31365;48.858;8.530;2023-03-23T05:46:53;14.70;99.90
46336;DHT22;31365;48.858;8.530;2023-03-23T05:49:20;14.60;99.90
46336;DHT22;31365;48.858;8.530;2023-03-23T05:51:50;14.60;99.90
46336;DHT22;31365;48.858;8.530;2023-03-23T05:54:18;14.50;99.90
46336;DHT22;31365;48.858;8.530;2023-03-23T05:56:47;14.50;99.90
46336;DHT22;31365;48.858;8.530;2023-03-23T05:59:37;14.40;99.90
46336;DHT22;31365;48.858;8.530;2023-03-23T06:02:06;14.30;99.90
46336;DHT22;31365;48.858;8.530;2023-03-23T06:04:33;14.20;99.90
46336;DHT22;31365;48.858;8.530;2023-03-23T06:07:10;14.20;99.90
46336;DHT22;31365;48.858;8.530;2023-03-23T06:09:43;14.00;99.90
46336;DHT22;31365;48.858;8.530;2023-03-23T06:12:13;14.00;99.90
46336;DHT22;31365;48.858;8.530;2023-03-23T06:14:49;13.90;99.90
46336;DHT22;31365;48.858;8.530;2023-03-23T06:17:23;13.70;99.90
46336;DHT22;31365;48.858;8.530;2023-03-23T06:19:52;13.70;99.90
46336;DHT22;31365;48.858;8.530;2023-03-23T06:22:21;13.70;99.90
46336;DHT22;31365;48.858;8.530;2023-03-23T06:25:08;13.70;99.90
46336;DHT22;31365;48.858;8.530;2023-03-23T06:27:42;13.60;99.90
46336;DHT22;31365;48.858;8.530;2023-03-23T06:30:11;13.60;99.90
46336;DHT22;31365;48.858;8.530;2023-03-23T06:32:41;13.60;99.90
46336;DHT22;31365;48.858;8.530;2023-03-23T06:35:12;13.60;99.90
46336;DHT22;31365;48.858;8.530;2023-03-23T06:38:11;13.60;99.90
46336;DHT22;31365;48.858;8.530;2023-03-23T06:40:51;13.50;99.90
46336;DHT22;31365;48.858;8.530;2023-03-23T06:43:19;13.50;99.90
46336;DHT22;31365;48.858;8.530;2023-03-23T06:46:06;13.50;99.90
46336;DHT22;31365;48.858;8.530;2023-03-23T06:48:36;13.40;99.90
46336;DHT22;31365;48.858;8.530;2023-03-23T06:51:05;13.40;99.90
46336;DHT22;31365;48.858;8.530;2023-03-23T06:53:35;13.40;99.90
46336;DHT22;31365;48.858;8.530;2023-03-23T06:56:05;13.30;99.90
46336;DHT22;31365;48.858;8.530;2023-03-23T06:58:33;13.30;99.90
46336;DHT22;31365;48.858;8.530;2023-03-23T07:01:01;13.30;99.90
46336;DHT22;31365;48.858;8.530;2023-03-23T07:03:34;13.20;99.90
46336;DHT22;31365;48.858;8.530;2023-03-23T07:06:02;13.20;99.90
46336;DHT22;31365;48.858;8.530;2023-03-23T07:08:34;13.20;99.90
46336;DHT22;31365;48.858;8.530;2023-03-23T07:11:02;13.20;99.90
46336;DHT22;31365;48.858;8.530;2023-03-23T07:13:29;13.20;99.90
46336;DHT22;31365;48.858;8.530;2023-03-23T07:16:00;13.20;99.90
46336;DHT22;31365;48.858;8.530;2023-03-23T07:18:28;13.20;99.90
46336;DHT22;31365;48.858;8.530;2023-03-23T07:20:59;13.20;99.90
46336;DHT22;31365;48.858;8.530;2023-03-23T07:23:30;13.20;99.90
46336;DHT22;31365;48.858;8.530;2023-03-23T07:26:03;13.20;99.90
46336;DHT22;31365;48.858;8.530;2023-03-23T07:28:37;13.20;99.90
46336;DHT22;31365;48.858;8.530;2023-03-23T07:31:17;13.20;99.90
46336;DHT22;31365;48.858;8.530;2023-03-23T07:33:44;13.30;99.90
46336;DHT22;31365;48.858;8.530;2023-03-23T07:36:12;13.30;99.90
46336;DHT22;31365;48.858;8.530;2023-03-23T07:38:40;13.30;99.90
46336;DHT22;31365;48.858;8.530;2023-03-23T07:41:07;13.40;99.90
46336;DHT22;31365;48.858;8.530;2023-03-23T07:43:36;13.40;99.90
46336;DHT22;31365;48.858;8.530;2023-03-23T07:46:20;13.30;99.90
46336;DHT22;31365;48.858;8.530;2023-03-23T07:48:57;13.30;99.90
46336;DHT22;31365;48.858;8.530;2023-03-23T07:51:33;13.30;99.90
46336;DHT22;31365;48.858;8.530;2023-03-23T07:54:01;13.30;99.90
46336;DHT22;31365;48.858;8.530;2023-03-23T07:56:48;13.20;99.90
46336;DHT22;31365;48.858;8.530;2023-03-23T07:59:21;13.20;99.90
46336;DHT22;31365;48.858;8.530;2023-03-23T08:01:49;13.20;99.90
46336;DHT22;31365;48.858;8.530;2023-03-23T08:04:38;13.10;99.90
46336;DHT22;31365;48.858;8.530;2023-03-23T08:07:37;13.00;99.90
46336;DHT22;31365;48.858;8.530;2023-03-23T08:10:11;13.00;99.90
46336;DHT22;31365;48.858;8.530;2023-03-23T08:13:05;13.00;99.90
46336;DHT22;31365;48.858;8.530;2023-03-23T08:15:59;13.00;99.90
46336;DHT22;31365;48.858;8.530;2023-03-23T08:18:52;13.00;99.90
46336;DHT22;31365;48.858;8.530;2023-03-23T08:21:39;12.90;99.90
46336;DHT22;31365;48.858;8.530;2023-03-23T08:24:24;13.00;99.90
46336;DHT22;31365;48.858;8.530;2023-03-23T08:26:58;13.00;99.90
46336;DHT22;31365;48.858;8.530;2023-03-23T08:29:44;13.10;99.90
46336;DHT22;31365;48.858;8.530;2023-03-23T08:32:44;13.20;99.90
46336;DHT22;31365;48.858;8.530;2023-03-23T08:35:44;13.30;99.90
46336;DHT22;31365;48.858;8.530;2023-03-23T08:38:31;13.30;99.90
46336;DHT22;31365;48.858;8.530;2023-03-23T08:41:20;13.40;99.90
46336;DHT22;31365;48.858;8.530;2023-03-23T08:43:57;13.40;99.90
46336;DHT22;31365;48.858;8.530;2023-03-23T08:46:38;13.50;99.90
46336;DHT22;31365;48.858;8.530;2023-03-23T08:49:17;13.60;99.90
46336;DHT22;31365;48.858;8.530;2023-03-23T08:52:12;13.80;99.90
46336;DHT22;31365;48.858;8.530;2023-03-23T08:54:59;13.80;99.90
46336;DHT22;31365;48.858;8.530;2023-03-23T08:57:50;13.80;99.90
46336;DHT22;31365;48.858;8.530;2023-03-23T09:00:52;13.80;99.90
46336;DHT22;31365;48.858;8.530;2023-03-23T09:03:38;13.70;99.90
46336;DHT22;31365;48.858;8.530;2023-03-23T09:06:38;13.50;99.90
46336;DHT22;31365;48.858;8.530;2023-03-23T09:09:05;13.40;99.90
46336;DHT22;31365;48.858;8.530;2023-03-23T09:11:35;13.40;99.90
46336;DHT22;31365;48.858;8.530;2023-03-23T09:14:06;13.40;99.90
46336;DHT22;31365;48.858;8.530;2023-03-23T09:16:34;13.50;99.90
46336;DHT22;31365;48.858;8.530;2023-03-23T09:19:02;13.60;99.90
46336;DHT22;31365;48.858;8.530;2023-03-23T09:21:29;13.60;99.90
46336;DHT22;31365;48.858;8.530;2023-03-23T09:23:56;13.70;99.90
46336;DHT22;31365;48.858;8.530;2023-03-23T09:26:25;13.60;99.90
46336;DHT22;31365;48.858;8.530;2023-03-23T09:28:52;13.50;99.90
46336;DHT22;31365;48.858;8.530;2023-03-23T09:31:24;13.50;99.90
46336;DHT22;31365;48.858;8.530;2023-03-23T09:33:52;13.50;99.90
46336;DHT22;31365;48.858;8.530;2023-03-23T09:36:21;13.40;99.90
46336;DHT22;31365;48.858;8.530;2023-03-23T09:38:51;13.40;99.90
46336;DHT22;31365;48.858;8.530;2023-03-23T09:41:39;13.20;99.90
46336;DHT22;31365;48.858;8.530;2023-03-23T09:44:24;13.10;99.90
46336;DHT22;31365;48.858;8.530;2023-03-23T09:47:05;13.00;99.90
46336;DHT22;31365;48.858;8.530;2023-03-23T09:49:41;12.90;99.90
46336;DHT22;31365;48.858;8.530;2023-03-23T09:52:13;12.90;99.90
46336;DHT22;31365;48.858;8.530;2023-03-23T09:54:44;13.00;99.90
46336;DHT22;31365;48.858;8.530;2023-03-23T09:57:17;13.00;99.90
46336;DHT22;31365;48.858;8.530;2023-03-23T09:59:56;13.10;99.90
46336;DHT22;31365;48.858;8.530;2023-03-23T10:02:36;13.20;99.90
46336;DHT22;31365;48.858;8.530;2023-03-23T10:05:26;13.30;99.90
46336;DHT22;31365;48.858;8.530;2023-03-23T10:07:56;13.40;99.90
46336;DHT22;31365;48.858;8.530;2023-03-23T10:10:34;13.50;99.90
46336;DHT22;31365;48.858;8.530;2023-03-23T10:13:17;13.50;99.90
46336;DHT22;31365;48.858;8.530;2023-03-23T10:15:54;13.50;99.90
46336;DHT22;31365;48.858;8.530;2023-03-23T10:18:29;13.60;99.90
46336;DHT22;31365;48.858;8.530;2023-03-23T10:20:59;13.60;99.90
46336;DHT22;31365;48.858;8.530;2023-03-23T10:23:41;13.70;99.90
46336;DHT22;31365;48.858;8.530;2023-03-23T10:26:28;13.80;99.90
46336;DHT22;31365;48.858;8.530;2023-03-23T10:29:09;13.90;99.90
46336;DHT22;31365;48.858;8.530;2023-03-23T10:31:43;14.00;99.90
46336;DHT22;31365;48.858;8.530;2023-03-23T10:34:20;14.20;99.90
46336;DHT22;31365;48.858;8.530;2023-03-23T10:36:56;14.40;99.90
46336;DHT22;31365;48.858;8.530;2023-03-23T10:39:33;14.70;99.90
46336;DHT22;31365;48.858;8.530;2023-03-23T10:42:08;15.00;99.90
46336;DHT22;31365;48.858;8.530;2023-03-23T10:44:36;15.20;99.90
46336;DHT22;31365;48.858;8.530;2023-03-23T10:47:05;15.20;99.90
46336;DHT22;31365;48.858;8.530;2023-03-23T10:49:38;15.20;99.90
46336;DHT22;31365;48.858;8.530;2023-03-23T10:52:18;15.20;99.90
46336;DHT22;31365;48.858;8.530;2023-03-23T10:54:55;15.10;99.90
46336;DHT22;31365;48.858;8.530;2023-03-23T10:57:26;15.10;99.90
46336;DHT22;31365;48.858;8.530;2023-03-23T11:00:00;15.10;99.90
46336;DHT22;31365;48.858;8.530;2023-03-23T11:02:35;15.10;99.90
46336;DHT22;31365;48.858;8.530;2023-03-23T11:05:16;15.20;99.90
46336;DHT22;31365;48.858;8.530;2023-03-23T11:07:51;15.20;99.90
46336;DHT22;31365;48.858;8.530;2023-03-23T11:10:23;15.30;99.90
46336;DHT22;31365;48.858;8.530;2023-03-23T11:12:51;15.30;99.90
46336;DHT22;31365;48.858;8.530;2023-03-23T11:15:29;15.50;99.90
46336;DHT22;31365;48.858;8.530;2023-03-23T11:18:00;15.50;99.90
46336;DHT22;31365;48.858;8.530;2023-03-23T11:20:35;15.50;99.90
46336;DHT22;31365;48.858;8.530;2023-03-23T11:23:19;15.40;99.90
46336;DHT22;31365;48.858;8.530;2023-03-23T11:25:57;15.30;99.90
46336;DHT22;31365;48.858;8.530;2023-03-23T11:28:31;15.20;99.90
46336;DHT22;31365;48.858;8.530;2023-03-23T11:31:03;15.10;99.90
46336;DHT22;31365;48.858;8.530;2023-03-23T11:33:38;15.00;99.90
46336;DHT22;31365;48.858;8.530;2023-03-23T11:36:09;14.90;99.90
46336;DHT22;31365;48.858;8.530;2023-03-23T11:38:40;14.80;99.90
46336;DHT22;31365;48.858;8.530;2023-03-23T11:41:10;14.70;99.90
46336;DHT22;31365;48.858;8.530;2023-03-23T11:43:40;14.70;99.90
46336;DHT22;31365;48.858;8.530;2023-03-23T11:46:16;14.60;99.90
46336;DHT22;31365;48.858;8.530;2023-03-23T11:48:54;14.60;99.90
46336;DHT22;31365;48.858;8.530;2023-03-23T11:51:33;14.50;99.90
46336;DHT22;31365;48.858;8.530;2023-03-23T11:54:15;14.40;99.90
46336;DHT22;31365;48.858;8.530;2023-03-23T11:56:48;14.30;99.90
46336;DHT22;31365;48.858;8.530;2023-03-23T11:59:18;14.30;99.90
46336;DHT22;31365;48.858;8.530;2023-03-23T12:01:56;14.30;99.90
46336;DHT22;31365;48.858;8.530;2023-03-23T12:04:38;14.40;99.90
46336;DHT22;31365;48.858;8.530;2023-03-23T12:07:36;14.50;99.90
46336;DHT22;31365;48.858;8.530;2023-03-23T12:10:23;14.60;99.90
46336;DHT22;31365;48.858;8.530;2023-03-23T12:13:03;14.70;99.90
46336;DHT22;31365;48.858;8.530;2023-03-23T12:15:45;14.90;99.90
46336;DHT22;31365;48.858;8.530;2023-03-23T12:18:22;15.10;99.90
46336;DHT22;31365;48.858;8.530;2023-03-23T12:21:03;15.20;99.90
46336;DHT22;31365;48.858;8.530;2023-03-23T12:23:50;15.40;99.90
46336;DHT22;31365;48.858;8.530;2023-03-23T12:26:29;15.70;99.90
46336;DHT22;31365;48.858;8.530;2023-03-23T12:32:23;16.00;99.90
46336;DHT22;31365;48.858;8.530;2023-03-23T12:35:20;16.00;99.90
46336;DHT22;31365;48.858;8.530;2023-03-23T12:38:04;15.90;99.90
46336;DHT22;31365;48.858;8.530;2023-03-23T12:41:01;15.80;99.90
46336;DHT22;31365;48.858;8.530;2023-03-23T12:43:42;15.80;99.90
46336;DHT22;31365;48.858;8.530;2023-03-23T12:46:39;15.70;99.90
46336;DHT22;31365;48.858;8.530;2023-03-23T12:49:22;15.80;99.90
46336;DHT22;31365;48.858;8.530;2023-03-23T12:52:00;15.80;99.90
46336;DHT22;31365;48.858;8.530;2023-03-23T12:54:36;15.80;99.90
46336;DHT22;31365;48.858;8.530;2023-03-23T12:57:12;15.90;99.90
46336;DHT22;31365;48.858;8.530;2023-03-23T12:59:47;16.10;99.90
46336;DHT22;31365;48.858;8.530;2023-03-23T13:02:21;16.30;99.90
46336;DHT22;31365;48.858;8.530;2023-03-23T13:04:54;16.60;99.90
46336;DHT22;31365;48.858;8.530;2023-03-23T13:07:36;16.90;99.90
46336;DHT22;31365;48.858;8.530;2023-03-23T13:10:15;17.00;99.90
46336;DHT22;31365;48.858;8.530;2023-03-23T13:12:52;17.00;99.90
46336;DHT22;31365;48.858;8.530;2023-03-23T13:15:27;17.10;99.90
46336;DHT22;31365;48.858;8.530;2023-03-23T13:18:11;17.30;99.90
46336;DHT22;31365;48.858;8.530;2023-03-23T13:21:00;17.30;99.90
46336;DHT22;31365;48.858;8.530;2023-03-23T13:23:32;17.40;99.90
46336;DHT22;31365;48.858;8.530;2023-03-23T13:26:06;17.30;99.90
46336;DHT22;31365;48.858;8.530;2023-03-23T13:28:48;17.40;99.90
46336;DHT22;31365;48.858;8.530;2023-03-23T13:31:23;17.40;99.90
46336;DHT22;31365;48.858;8.530;2023-03-23T13:33:53;17.30;99.90
46336;DHT22;31365;48.858;8.530;2023-03-23T13:36:28;17.20;99.90
46336;DHT22;31365;48.858;8.530;2023-03-23T13:38:59;17.10;99.90
46336;DHT22;31365;48.858;8.530;2023-03-23T13:41:30;16.90;99.90
46336;DHT22;31365;48.858;8.530;2023-03-23T13:44:18;16.80;99.90
46336;DHT22;31365;48.858;8.530;2023-03-23T13:46:57;16.80;99.90
46336;DHT22;31365;48.858;8.530;2023-03-23T13:49:32;16.80;99.90
46336;DHT22;31365;48.858;8.530;2023-03-23T13:52:13;16.90;99.90
46336;DHT22;31365;48.858;8.530;2023-03-23T13:54:44;17.00;99.90
46336;DHT22;31365;48.858;8.530;2023-03-23T13:57:35;17.20;99.90
46336;DHT22;31365;48.858;8.530;2023-03-23T14:00:36;17.40;99.90
46336;DHT22;31365;48.858;8.530;2023-03-23T14:03:15;17.60;99.90
46336;DHT22;31365;48.858;8.530;2023-03-23T14:05:49;17.90;99.90
46336;DHT22;31365;48.858;8.530;2023-03-23T14:08:24;18.30;99.90
46336;DHT22;31365;48.858;8.530;2023-03-23T14:11:12;18.30;99.90
46336;DHT22;31365;48.858;8.530;2023-03-23T14:13:48;18.20;99.90
46336;DHT22;31365;48.858;8.530;2023-03-23T14:16:31;18.20;99.90
46336;DHT22;31365;48.858;8.530;2023-03-23T14:19:13;18.20;99.90
46336;DHT22;31365;48.858;8.530;2023-03-23T14:21:50;18.10;99.90
46336;DHT22;31365;48.858;8.530;2023-03-23T14:24:22;18.20;99.90
46336;DHT22;31365;48.858;8.530;2023-03-23T14:26:52;18.10;99.90
46336;DHT22;31365;48.858;8.530;2023-03-23T14:29:21;18.20;99.90
46336;DHT22;31365;48.858;8.530;2023-03-23T14:31:55;18.30;99.90
46336;DHT22;31365;48.858;8.530;2023-03-23T14:34:25;18.20;99.90
46336;DHT22;31365;48.858;8.530;2023-03-23T14:36:55;18.00;99.90
46336;DHT22;31365;48.858;8.530;2023-03-23T14:39:25;17.80;99.90
46336;DHT22;31365;48.858;8.530;2023-03-23T14:41:55;17.50;99.90
46336;DHT22;31365;48.858;8.530;2023-03-23T14:44:26;17.30;99.90
46336;DHT22;31365;48.858;8.530;2023-03-23T14:47:00;17.20;99.90
46336;DHT22;31365;48.858;8.530;2023-03-23T14:49:34;17.10;99.90
46336;DHT22;31365;48.858;8.530;2023-03-23T14:52:10;17.00;99.90
46336;DHT22;31365;48.858;8.530;2023-03-23T14:54:39;17.00;99.90
46336;DHT22;31365;48.858;8.530;2023-03-23T14:57:14;16.90;99.90
46336;DHT22;31365;48.858;8.530;2023-03-23T14:59:44;16.80;99.90
46336;DHT22;31365;48.858;8.530;2023-03-23T15:02:18;16.70;99.90
46336;DHT22;31365;48.858;8.530;2023-03-23T15:04:52;16.60;99.90
46336;DHT22;31365;48.858;8.530;2023-03-23T15:07:26;16.60;99.90
46336;DHT22;31365;48.858;8.530;2023-03-23T15:09:57;16.50;99.90
46336;DHT22;31365;48.858;8.530;2023-03-23T15:12:26;16.50;99.90
46336;DHT22;31365;48.858;8.530;2023-03-23T15:14:58;16.50;99.90
46336;DHT22;31365;48.858;8.530;2023-03-23T15:17:32;16.40;99.90
46336;DHT22;31365;48.858;8.530;2023-03-23T15:20:09;16.40;99.90
46336;DHT22;31365;48.858;8.530;2023-03-23T15:22:36;16.40;99.90
46336;DHT22;31365;48.858;8.530;2023-03-23T15:25:19;16.30;99.90
46336;DHT22;31365;48.858;8.530;2023-03-23T15:27:50;16.30;99.90
46336;DHT22;31365;48.858;8.530;2023-03-23T15:30:31;16.20;99.90
46336;DHT22;31365;48.858;8.530;2023-03-23T15:33:03;16.10;99.90
46336;DHT22;31365;48.858;8.530;2023-03-23T15:35:35;16.10;99.90
46336;DHT22;31365;48.858;8.530;2023-03-23T15:38:06;16.00;99.90
46336;DHT22;31365;48.858;8.530;2023-03-23T15:40:44;16.00;99.90
46336;DHT22;31365;48.858;8.530;2023-03-23T15:43:16;16.00;99.90
46336;DHT22;31365;48.858;8.530;2023-03-23T15:45:55;15.90;99.90
46336;DHT22;31365;48.858;8.530;2023-03-23T15:48:28;15.80;99.90
46336;DHT22;31365;48.858;8.530;2023-03-23T15:50:56;15.70;99.90
46336;DHT22;31365;48.858;8.530;2023-03-23T15:53:28;15.70;99.90
46336;DHT22;31365;48.858;8.530;2023-03-23T15:55:59;15.50;99.90
46336;DHT22;31365;48.858;8.530;2023-03-23T15:58:28;15.60;99.90
46336;DHT22;31365;48.858;8.530;2023-03-23T16:00:59;15.50;99.90
46336;DHT22;31365;48.858;8.530;2023-03-23T16:03:38;15.50;99.90
46336;DHT22;31365;48.858;8.530;2023-03-23T16:06:10;15.50;99.90
46336;DHT22;31365;48.858;8.530;2023-03-23T16:08:51;15.40;99.90
46336;DHT22;31365;48.858;8.530;2023-03-23T16:11:22;15.40;99.90
46336;DHT22;31365;48.858;8.530;2023-03-23T16:13:51;15.30;99.90
46336;DHT22;31365;48.858;8.530;2023-03-23T16:16:23;15.30;99.90
46336;DHT22;31365;48.858;8.530;2023-03-23T16:18:55;15.20;99.90
46336;DHT22;31365;48.858;8.530;2023-03-23T16:21:23;15.20;99.90
46336;DHT22;31365;48.858;8.530;2023-03-23T16:23:51;15.20;99.90
46336;DHT22;31365;48.858;8.530;2023-03-23T16:26:19;15.10;99.90
46336;DHT22;31365;48.858;8.530;2023-03-23T16:28:48;15.10;99.90